Time;durP1;ratioP1;P1;durP2;ratioP2;P2;SDS_P1;SDS_P2;PMS_P1;PMS_P2;Temp;Humidity;BMP_temperature;BMP_pressure;BME280_temperature;BME280_humidity;BME280_pressure;Samples;Min_cycle;Max_cycle;Signal;HPM_P1;HPM_P2
2022/02/06 00:01:40;;;;;;;2.00;0.60;;;8.10;99.90;;;;;;4938062;29;20232;-72
2022/02/06 00:04:07;;;;;;;5.13;0.73;;;8.10;99.90;;;;;;4924182;29;20736;-73
2022/02/06 00:06:36;;;;;;;1.33;0.70;;;8.10;99.90;;;;;;4930419;29;20205;-72
2022/02/06 00:09:02;;;;;;;0.87;0.50;;;8.10;99.90;;;;;;4930160;29;20209;-73
2022/02/06 00:11:29;;;;;;;3.10;0.53;;;8.10;99.90;;;;;;4931496;29;20235;-73
2022/02/06 00:13:56;;;;;;;2.07;0.60;;;8.00;99.90;;;;;;4936964;29;20217;-72
2022/02/06 00:16:24;;;;;;;2.50;0.70;;;8.00;99.90;;;;;;4939076;29;20722;-73
2022/02/06 00:18:50;;;;;;;6.77;0.87;;;8.00;99.90;;;;;;4940581;29;20213;-73
2022/02/06 00:21:19;;;;;;;1.63;0.60;;;8.00;99.90;;;;;;4937441;29;20229;-71
2022/02/06 00:23:51;;;;;;;3.53;0.57;;;8.00;99.90;;;;;;4938442;29;20237;-72
2022/02/06 00:26:26;;;;;;;4.57;0.70;;;8.00;99.90;;;;;;4934950;29;20208;-72
2022/02/06 00:29:12;;;;;;;1.00;0.60;;;8.00;99.90;;;;;;4931398;29;20232;-72
2022/02/06 00:31:51;;;;;;;0.67;0.50;;;8.00;99.90;;;;;;4932374;29;20229;-71
2022/02/06 00:34:45;;;;;;;2.03;0.37;;;8.00;99.90;;;;;;4918700;29;20217;-72
2022/02/06 00:40:00;;;;;;;4.80;0.90;;;7.90;99.90;;;;;;4918836;29;20212;-72
2022/02/06 00:42:27;;;;;;;0.57;0.30;;;7.90;99.90;;;;;;4919355;29;20242;-72
2022/02/06 00:44:54;;;;;;;2.33;0.80;;;8.00;99.90;;;;;;4928429;29;20212;-72
2022/02/06 00:47:21;;;;;;;2.20;0.60;;;8.00;99.90;;;;;;4937734;29;20219;-72
2022/02/06 00:49:49;;;;;;;2.37;0.63;;;8.00;99.90;;;;;;4937294;29;20288;-72
2022/02/06 00:52:22;;;;;;;2.00;0.30;;;7.90;99.90;;;;;;4925798;29;20292;-72
2022/02/06 00:54:48;;;;;;;2.30;0.70;;;8.00;99.90;;;;;;4918824;29;20668;-72
2022/02/06 00:57:17;;;;;;;2.10;0.70;;;8.00;99.90;;;;;;4918970;29;20213;-73
2022/02/06 00:59:44;;;;;;;2.17;0.50;;;8.10;99.90;;;;;;4918479;29;20205;-72
2022/02/06 01:02:10;;;;;;;4.03;0.70;;;8.00;99.90;;;;;;4928302;29;20237;-72
2022/02/06 01:04:37;;;;;;;2.00;0.50;;;8.10;99.90;;;;;;4934597;29;20204;-72
2022/02/06 01:07:04;;;;;;;6.93;1.00;;;8.10;99.90;;;;;;4925631;29;20748;-72
2022/02/06 01:09:32;;;;;;;3.50;0.70;;;8.10;99.90;;;;;;4927263;29;20674;-72
2022/02/06 01:11:58;;;;;;;5.37;0.60;;;8.20;99.90;;;;;;4925434;29;20224;-74
2022/02/06 01:14:42;;;;;;;2.83;0.70;;;8.20;99.90;;;;;;4926744;29;20241;-72
2022/02/06 01:17:21;;;;;;;3.87;0.90;;;8.20;99.90;;;;;;4927103;29;20212;-72
2022/02/06 01:19:57;;;;;;;1.07;0.50;;;8.20;99.90;;;;;;4927795;29;20209;-73
2022/02/06 01:22:26;;;;;;;4.63;0.63;;;8.20;99.90;;;;;;4926692;29;20620;-73
2022/02/06 01:25:01;;;;;;;2.37;0.50;;;8.20;99.90;;;;;;4922481;29;20213;-73
2022/02/06 01:27:37;;;;;;;1.70;0.40;;;8.20;99.90;;;;;;4933183;29;20263;-73
2022/02/06 01:32:58;;;;;;;1.00;0.37;;;8.20;99.90;;;;;;4936336;29;20291;-74
2022/02/06 01:35:31;;;;;;;2.97;0.60;;;8.20;99.90;;;;;;4937425;29;20550;-72
2022/02/06 01:38:10;;;;;;;0.93;0.47;;;8.30;99.90;;;;;;4937121;29;20674;-73
2022/02/06 01:40:43;;;;;;;3.03;0.60;;;8.20;99.90;;;;;;4936801;29;20231;-73
2022/02/06 01:43:15;;;;;;;3.47;0.80;;;8.30;99.90;;;;;;4936436;29;20308;-71
2022/02/06 01:57:28;;;;;;;6.27;0.80;;;8.20;99.90;;;;;;4936718;29;20224;-74
2022/02/06 02:03:00;;;;;;;0.63;0.40;;;8.20;99.90;;;;;;4877482;29;20239;-73
2022/02/06 02:11:36;;;;;;;4.97;0.80;;;8.10;99.90;;;;;;4936046;29;20243;-74
2022/02/06 02:14:20;;;;;;;1.90;0.70;;;8.00;99.90;;;;;;4936656;29;20220;-72
2022/02/06 02:17:16;;;;;;;1.17;0.60;;;7.90;99.90;;;;;;4935394;29;20208;-72
2022/02/06 02:28:22;;;;;;;3.77;0.70;;;7.60;99.90;;;;;;4911706;29;20205;-73
2022/02/06 02:31:07;;;;;;;1.97;0.67;;;7.60;99.90;;;;;;4936132;29;20232;-73
2022/02/06 02:45:10;;;;;;;1.47;0.70;;;7.60;99.90;;;;;;4877390;29;20262;-72
2022/02/06 02:47:38;;;;;;;6.47;1.07;;;7.60;99.90;;;;;;4933718;29;20712;-73
2022/02/06 02:50:12;;;;;;;2.40;0.70;;;7.70;99.90;;;;;;4935443;29;20228;-72
2022/02/06 02:52:53;;;;;;;2.40;0.60;;;7.80;99.90;;;;;;4935909;29;20266;-73
2022/02/06 02:55:41;;;;;;;3.67;0.50;;;7.80;99.90;;;;;;4935757;29;20216;-73
2022/02/06 02:58:22;;;;;;;6.17;0.90;;;7.90;99.90;;;;;;4935736;29;20244;-73
2022/02/06 03:00:56;;;;;;;6.10;0.40;;;7.90;99.90;;;;;;4934291;29;20217;-73
2022/02/06 03:03:26;;;;;;;1.17;0.73;;;7.90;99.90;;;;;;4935899;29;20291;-73
2022/02/06 03:05:55;;;;;;;1.47;0.73;;;7.90;99.90;;;;;;4935517;29;20216;-73
2022/02/06 03:08:22;;;;;;;2.37;0.40;;;8.00;99.90;;;;;;4935731;29;20259;-73
2022/02/06 03:10:53;;;;;;;1.30;0.60;;;8.00;99.90;;;;;;4935803;29;20260;-73
2022/02/06 03:13:23;;;;;;;4.40;0.60;;;8.00;99.90;;;;;;4935635;29;20264;-72
2022/02/06 03:16:01;;;;;;;0.80;0.20;;;7.90;99.90;;;;;;4935422;29;20209;-72
2022/02/06 03:18:31;;;;;;;4.40;1.23;;;7.90;99.90;;;;;;4935291;29;20209;-72
2022/02/06 03:21:00;;;;;;;0.93;0.43;;;7.80;99.90;;;;;;4935565;29;20233;-72
2022/02/06 03:23:27;;;;;;;1.33;0.70;;;7.70;99.90;;;;;;4935616;29;20267;-72
2022/02/06 03:25:56;;;;;;;4.43;0.90;;;7.60;99.90;;;;;;4935374;29;20263;-72
2022/02/06 03:28:23;;;;;;;4.07;0.70;;;7.60;99.90;;;;;;4935105;29;20215;-72
2022/02/06 03:30:51;;;;;;;3.27;1.00;;;7.50;99.90;;;;;;4938959;29;20719;-73
2022/02/06 03:33:19;;;;;;;4.17;0.80;;;7.50;99.90;;;;;;4939471;29;20727;-73
2022/02/06 03:35:46;;;;;;;2.80;0.20;;;7.50;99.90;;;;;;4938947;29;20201;-72
2022/02/06 03:38:13;;;;;;;3.00;0.70;;;7.50;99.90;;;;;;4939396;29;20220;-73
2022/02/06 03:40:44;;;;;;;1.63;0.80;;;7.50;99.90;;;;;;4939251;29;20745;-73
2022/02/06 03:43:16;;;;;;;1.00;0.70;;;7.50;99.90;;;;;;4938792;29;20315;-72
2022/02/06 03:45:47;;;;;;;3.40;0.50;;;7.50;99.90;;;;;;4939303;29;20236;-73
2022/02/06 03:48:19;;;;;;;4.00;1.03;;;7.40;99.90;;;;;;4939148;29;20216;-73
2022/02/06 03:50:50;;;;;;;2.90;1.53;;;7.40;99.90;;;;;;4939190;29;20235;-73
2022/02/06 03:53:20;;;;;;;5.00;0.90;;;7.40;99.90;;;;;;4938240;29;20223;-73
2022/02/06 03:55:49;;;;;;;2.70;0.70;;;7.40;99.90;;;;;;4938493;29;20713;-72
2022/02/06 03:58:17;;;;;;;4.87;0.90;;;7.40;99.90;;;;;;4938129;29;20216;-73
2022/02/06 04:00:45;;;;;;;1.37;0.50;;;7.30;99.90;;;;;;4937877;29;20227;-73
2022/02/06 04:03:11;;;;;;;2.03;0.70;;;7.30;99.90;;;;;;4938693;29;20231;-72
2022/02/06 04:05:44;;;;;;;1.63;0.77;;;7.30;99.90;;;;;;4938527;29;20215;-72
2022/02/06 04:08:14;;;;;;;3.07;0.90;;;7.40;99.90;;;;;;4938518;29;20205;-73
2022/02/06 04:10:45;;;;;;;3.07;0.80;;;7.30;99.90;;;;;;4938800;29;20656;-73
2022/02/06 04:13:16;;;;;;;6.70;1.03;;;7.30;99.90;;;;;;4938841;29;20211;-72
2022/02/06 04:15:47;;;;;;;8.10;1.63;;;7.30;99.90;;;;;;4938584;29;20284;-73
2022/02/06 04:18:16;;;;;;;9.63;0.97;;;7.30;99.90;;;;;;4938154;29;20208;-73
2022/02/06 04:20:43;;;;;;;4.00;1.37;;;7.20;99.90;;;;;;4938018;29;20247;-72
2022/02/06 04:23:10;;;;;;;5.93;0.80;;;7.20;99.90;;;;;;4938184;29;20216;-72
2022/02/06 04:25:37;;;;;;;2.40;0.83;;;7.20;99.90;;;;;;4938032;29;20208;-72
2022/02/06 04:28:04;;;;;;;1.97;0.77;;;7.30;99.90;;;;;;4938388;29;20213;-71
2022/02/06 04:30:31;;;;;;;3.87;0.90;;;7.30;99.90;;;;;;4937610;29;20209;-72
2022/02/06 04:33:00;;;;;;;6.90;1.40;;;7.30;99.90;;;;;;4938173;29;20216;-71
2022/02/06 04:35:34;;;;;;;8.90;0.90;;;7.30;99.90;;;;;;4937922;29;20213;-71
2022/02/06 04:38:12;;;;;;;3.23;0.80;;;7.30;99.90;;;;;;4938185;29;20212;-71
2022/02/06 04:40:57;;;;;;;4.93;1.23;;;7.30;99.90;;;;;;4937196;29;20300;-71
2022/02/06 04:49:24;;;;;;;4.47;0.90;;;7.30;99.90;;;;;;4937494;29;20215;-73
2022/02/06 05:16:37;;;;;;;7.67;0.87;;;7.20;99.90;;;;;;4927047;29;20216;-72
2022/02/06 05:22:20;;;;;;;7.63;1.23;;;7.30;99.90;;;;;;4937429;29;20705;-73
2022/02/06 05:25:13;;;;;;;1.40;1.10;;;7.30;99.90;;;;;;4937350;29;20251;-73
2022/02/06 05:28:04;;;;;;;2.17;0.70;;;7.30;99.90;;;;;;4937384;29;20272;-73
2022/02/06 05:30:41;;;;;;;1.33;0.90;;;7.30;99.90;;;;;;4936743;29;20209;-71
2022/02/06 05:33:08;;;;;;;3.13;0.90;;;7.30;99.90;;;;;;4937360;29;20212;-72
2022/02/06 05:35:36;;;;;;;3.30;1.00;;;7.30;99.90;;;;;;4936902;29;20216;-71
2022/02/06 05:38:04;;;;;;;5.47;1.03;;;7.30;99.90;;;;;;4936774;29;20637;-71
2022/02/06 05:43:03;;;;;;;1.50;0.90;;;7.40;99.90;;;;;;4934956;29;20224;-70
2022/02/06 05:45:30;;;;;;;3.93;0.90;;;7.40;99.90;;;;;;4936910;29;20259;-71
2022/02/06 05:47:57;;;;;;;5.97;1.33;;;7.40;99.90;;;;;;4936808;29;20557;-70
2022/02/06 05:50:24;;;;;;;5.27;0.83;;;7.40;99.90;;;;;;4936610;29;20215;-70
2022/02/06 05:52:51;;;;;;;7.23;1.30;;;7.40;99.90;;;;;;4936807;29;20216;-70
2022/02/06 05:55:21;;;;;;;4.77;0.70;;;7.40;99.90;;;;;;4936023;29;20216;-70
2022/02/06 05:57:48;;;;;;;0.87;0.63;;;7.40;99.90;;;;;;4936818;29;20215;-70
2022/02/06 06:00:15;;;;;;;2.20;0.80;;;7.40;99.90;;;;;;4936288;29;20209;-70
2022/02/06 06:02:42;;;;;;;5.10;1.20;;;7.40;99.90;;;;;;4936558;29;20251;-70
2022/02/06 06:05:09;;;;;;;3.83;0.80;;;7.40;99.90;;;;;;4936707;29;20236;-70
2022/02/06 06:07:42;;;;;;;6.00;0.80;;;7.40;99.90;;;;;;4936560;29;20660;-70
2022/02/06 06:10:09;;;;;;;2.83;0.97;;;7.40;99.90;;;;;;4936716;29;20209;-70
2022/02/06 06:12:39;;;;;;;5.70;1.10;;;7.40;99.90;;;;;;4936149;29;20229;-70
2022/02/06 06:15:07;;;;;;;8.77;0.70;;;7.40;99.90;;;;;;4936069;29;20212;-70
2022/02/06 06:17:36;;;;;;;1.93;0.63;;;7.40;99.90;;;;;;4936231;29;20205;-70
2022/02/06 06:20:05;;;;;;;1.30;0.80;;;7.40;99.90;;;;;;4935750;29;20216;-70
2022/02/06 06:22:32;;;;;;;1.20;0.43;;;7.50;99.90;;;;;;4935534;29;20699;-71
2022/02/06 06:25:02;;;;;;;2.20;0.67;;;7.50;99.90;;;;;;4935901;29;20246;-70
2022/02/06 06:27:29;;;;;;;1.70;0.63;;;7.40;99.90;;;;;;4935977;29;20561;-70
2022/02/06 06:29:57;;;;;;;1.53;0.73;;;7.40;99.90;;;;;;4936274;29;20209;-71
2022/02/06 06:32:24;;;;;;;1.97;0.33;;;7.50;99.90;;;;;;4935877;29;20233;-70
2022/02/06 06:34:52;;;;;;;3.50;0.50;;;7.50;99.90;;;;;;4936075;29;20215;-70
2022/02/06 06:37:20;;;;;;;1.27;0.70;;;7.50;99.90;;;;;;4936298;29;20216;-70
2022/02/06 06:39:48;;;;;;;2.80;0.60;;;7.50;99.90;;;;;;4934991;29;20205;-70
2022/02/06 06:42:16;;;;;;;1.40;0.50;;;7.60;99.90;;;;;;4935644;29;20244;-70
2022/02/06 06:44:44;;;;;;;2.93;0.80;;;7.50;99.90;;;;;;4935662;29;20331;-70
2022/02/06 06:47:12;;;;;;;0.70;0.40;;;7.50;99.90;;;;;;4935893;29;20208;-70
2022/02/06 06:49:39;;;;;;;1.07;0.73;;;7.60;99.90;;;;;;4935698;29;20229;-70
2022/02/06 06:52:07;;;;;;;1.77;0.50;;;7.50;99.90;;;;;;4934989;29;20734;-71
2022/02/06 06:54:38;;;;;;;5.80;1.00;;;7.60;99.90;;;;;;4935752;29;20215;-71
2022/02/06 06:57:11;;;;;;;1.40;0.73;;;7.60;99.90;;;;;;4934941;29;20203;-70
2022/02/06 07:00:07;;;;;;;2.27;0.80;;;7.60;99.90;;;;;;4926856;29;20251;-71
2022/02/06 07:02:35;;;;;;;6.83;1.07;;;7.60;99.90;;;;;;4935145;29;20233;-70
2022/02/06 07:05:03;;;;;;;5.10;1.30;;;7.60;99.90;;;;;;4935212;29;20236;-70
2022/02/06 07:07:31;;;;;;;2.03;0.90;;;7.60;99.90;;;;;;4934854;29;20216;-70
2022/02/06 10:33:44;;;;;;;1.90;0.43;;;8.20;99.90;;;;;;3743705;23;20228;-70
2022/02/06 10:36:11;;;;;;;2.27;0.50;;;8.20;99.90;;;;;;4943904;29;20227;-71
2022/02/06 10:38:38;;;;;;;0.50;0.33;;;8.30;99.90;;;;;;4946133;28;20215;-70
2022/02/06 10:41:08;;;;;;;0.70;0.40;;;8.30;99.90;;;;;;4935498;29;20719;-71
2022/02/06 10:43:37;;;;;;;0.50;0.30;;;8.30;99.90;;;;;;4935928;29;20303;-71
2022/02/06 10:46:09;;;;;;;0.33;0.30;;;8.30;99.90;;;;;;4935883;29;20236;-71
2022/02/06 10:48:46;;;;;;;2.83;0.40;;;8.30;99.90;;;;;;4935772;29;20213;-71
2022/02/06 10:51:42;;;;;;;0.30;0.20;;;8.30;99.90;;;;;;4935371;29;20232;-71
2022/02/06 10:54:11;;;;;;;1.30;0.83;;;8.40;99.90;;;;;;4935589;29;20572;-72
2022/02/06 10:56:57;;;;;;;0.30;0.20;;;8.40;99.90;;;;;;4935778;29;20209;-71
2022/02/06 10:59:25;;;;;;;0.93;0.60;;;8.40;99.90;;;;;;4935575;29;20548;-72
2022/02/06 11:01:52;;;;;;;0.83;0.30;;;8.40;99.90;;;;;;4934810;29;20209;-70
2022/02/06 11:04:29;;;;;;;0.40;0.30;;;8.40;99.90;;;;;;4935159;29;20241;-69
2022/02/06 11:07:12;;;;;;;0.40;0.20;;;8.50;99.90;;;;;;4935579;29;20208;-70
2022/02/06 11:09:39;;;;;;;0.47;0.30;;;8.50;99.90;;;;;;4934887;29;20215;-70
2022/02/06 11:12:11;;;;;;;0.67;0.30;;;8.50;99.90;;;;;;4935184;29;20277;-71
2022/02/06 11:14:45;;;;;;;2.40;0.40;;;8.50;99.90;;;;;;4935321;29;20211;-72
2022/02/06 11:17:20;;;;;;;3.33;0.40;;;8.50;99.90;;;;;;4935260;29;20301;-71
2022/02/06 11:20:04;;;;;;;0.43;0.10;;;8.60;99.90;;;;;;4934337;29;21020;-71
2022/02/06 11:22:31;;;;;;;0.50;0.37;;;8.60;99.90;;;;;;4934237;29;20296;-71
2022/02/06 11:24:59;;;;;;;1.20;0.47;;;8.60;99.90;;;;;;4934653;29;20248;-72
2022/02/06 11:27:27;;;;;;;4.10;0.60;;;8.60;99.90;;;;;;4934862;29;20659;-72
2022/02/06 11:29:54;;;;;;;1.00;0.37;;;8.60;99.90;;;;;;4934711;29;20288;-72
2022/02/06 11:32:23;;;;;;;1.43;0.40;;;8.70;99.90;;;;;;4932144;29;20217;-72
2022/02/06 11:34:50;;;;;;;0.40;0.30;;;8.80;99.90;;;;;;4931167;29;20221;-72
2022/02/06 11:46:11;;;;;;;1.43;0.43;;;9.30;99.90;;;;;;4915640;29;20324;-71
2022/02/06 11:48:40;;;;;;;3.30;0.57;;;9.40;99.90;;;;;;4916257;29;20209;-71
2022/02/06 11:51:07;;;;;;;4.60;0.70;;;9.50;99.90;;;;;;4936752;29;20766;-72
2022/02/06 11:53:38;;;;;;;4.70;0.80;;;9.50;99.90;;;;;;4938529;29;20325;-71
2022/02/06 11:56:21;;;;;;;3.53;1.17;;;9.50;99.90;;;;;;4938209;29;20226;-71
2022/02/06 11:58:49;;;;;;;2.60;0.80;;;9.60;99.90;;;;;;4938657;29;20213;-73
2022/02/06 12:01:22;;;;;;;3.10;0.40;;;9.50;99.90;;;;;;4938006;29;20232;-71
2022/02/06 12:03:52;;;;;;;3.03;0.60;;;9.50;99.90;;;;;;4938120;29;20209;-71
2022/02/06 12:06:20;;;;;;;2.73;0.43;;;9.50;99.90;;;;;;4937178;29;21708;-70
2022/02/06 12:09:12;;;;;;;0.70;0.50;;;9.40;99.90;;;;;;4935666;29;20204;-71
2022/02/06 12:11:39;;;;;;;3.00;0.43;;;9.30;99.90;;;;;;4936937;29;20225;-70
2022/02/06 12:14:10;;;;;;;0.40;0.20;;;9.10;99.90;;;;;;4936611;29;20197;-72
2022/02/06 12:16:42;;;;;;;3.30;0.40;;;9.00;99.90;;;;;;4937376;29;20216;-72
2022/02/06 12:19:30;;;;;;;4.13;0.43;;;9.00;99.90;;;;;;4934651;29;20205;-73
2022/02/06 12:21:59;;;;;;;1.43;0.40;;;9.00;99.90;;;;;;4936328;29;20229;-73
2022/02/06 12:24:42;;;;;;;1.03;0.30;;;8.90;99.90;;;;;;4937433;29;20212;-73
2022/02/06 12:27:22;;;;;;;2.77;0.30;;;8.80;99.90;;;;;;4937140;29;20203;-70
2022/02/06 12:29:52;;;;;;;0.30;0.20;;;8.80;99.90;;;;;;4934538;29;20220;-72
2022/02/06 12:32:41;;;;;;;2.13;0.40;;;8.70;99.90;;;;;;4935633;29;20209;-71
2022/02/06 12:37:55;;;;;;;1.30;0.40;;;8.60;99.90;;;;;;4918941;29;20819;-73
2022/02/06 12:40:25;;;;;;;1.60;0.30;;;8.70;99.90;;;;;;4920708;29;20274;-70
2022/02/06 12:42:59;;;;;;;1.00;0.43;;;8.80;99.90;;;;;;4935332;29;20209;-70
2022/02/06 12:45:28;;;;;;;0.70;0.20;;;8.80;99.90;;;;;;4934324;29;20224;-73
2022/02/06 12:48:00;;;;;;;2.10;0.23;;;8.70;99.90;;;;;;4936199;29;20872;-73
2022/02/06 12:50:29;;;;;;;3.37;1.07;;;8.70;99.90;;;;;;4934044;29;20722;-70
2022/02/06 12:52:57;;;;;;;0.73;0.30;;;8.60;99.90;;;;;;4937581;29;20213;-71
2022/02/06 12:55:29;;;;;;;3.43;0.43;;;8.50;99.90;;;;;;4937359;29;20209;-70
2022/02/06 12:57:57;;;;;;;0.50;0.10;;;8.40;99.90;;;;;;4937164;29;20208;-69
2022/02/06 13:00:26;;;;;;;1.20;0.50;;;8.40;99.90;;;;;;4936922;29;20632;-69
2022/02/06 13:02:54;;;;;;;3.80;0.30;;;8.30;99.90;;;;;;4936841;29;20209;-71
2022/02/06 13:05:21;;;;;;;1.47;0.30;;;8.20;99.90;;;;;;4937290;29;20239;-72
2022/02/06 13:07:48;;;;;;;3.83;0.37;;;8.20;99.90;;;;;;4937445;29;20688;-69
2022/02/06 13:10:15;;;;;;;0.70;0.43;;;8.20;99.90;;;;;;4935621;29;20239;-71
2022/02/06 13:12:50;;;;;;;0.37;0.17;;;8.20;99.90;;;;;;4935700;29;20213;-70
2022/02/06 13:15:39;;;;;;;0.50;0.20;;;8.30;99.90;;;;;;4936493;29;20619;-69
2022/02/06 13:18:20;;;;;;;0.73;0.30;;;8.30;99.90;;;;;;4936852;29;20300;-70
2022/02/06 13:21:03;;;;;;;0.70;0.30;;;8.40;99.90;;;;;;4923184;29;20230;-70
2022/02/06 13:23:51;;;;;;;0.30;0.20;;;8.30;99.90;;;;;;4936757;29;20280;-70
2022/02/06 13:26:24;;;;;;;0.67;0.30;;;8.40;99.90;;;;;;4936827;29;20308;-72
2022/02/06 13:29:00;;;;;;;2.80;0.30;;;8.50;99.90;;;;;;4936501;29;20208;-70
2022/02/06 13:31:42;;;;;;;0.83;0.30;;;8.60;99.90;;;;;;4935097;29;20220;-72
2022/02/06 13:34:29;;;;;;;1.10;0.30;;;8.70;99.90;;;;;;4932666;29;20212;-69
2022/02/06 13:37:07;;;;;;;1.40;0.50;;;8.80;99.90;;;;;;4932401;29;20676;-69
2022/02/06 13:39:38;;;;;;;2.67;0.50;;;8.90;99.90;;;;;;4935942;29;20696;-69
2022/02/06 13:42:14;;;;;;;1.70;0.60;;;8.90;99.90;;;;;;4935582;29;20668;-68
2022/02/06 13:44:43;;;;;;;1.60;0.50;;;8.90;99.90;;;;;;4917848;29;20209;-68
2022/02/06 13:47:10;;;;;;;1.73;0.87;;;8.90;99.90;;;;;;4924634;29;20232;-69
2022/02/06 13:49:41;;;;;;;2.17;0.47;;;8.90;99.90;;;;;;4935903;29;20295;-67
2022/02/06 13:52:12;;;;;;;2.97;0.50;;;9.00;99.90;;;;;;4935390;29;20209;-69
2022/02/06 13:54:42;;;;;;;0.87;0.43;;;9.10;99.90;;;;;;4935928;29;20240;-69
2022/02/06 13:57:09;;;;;;;4.77;0.70;;;9.00;99.90;;;;;;4935730;29;20671;-69
2022/02/06 13:59:38;;;;;;;1.13;0.67;;;9.20;99.90;;;;;;4936297;29;20209;-69
2022/02/06 14:02:08;;;;;;;3.33;0.70;;;9.30;99.90;;;;;;4935996;29;20217;-69
2022/02/06 14:04:37;;;;;;;4.27;1.00;;;9.40;99.90;;;;;;4935615;29;20212;-69
2022/02/06 14:07:05;;;;;;;2.97;1.20;;;9.30;99.90;;;;;;4934935;29;20704;-69
2022/02/06 14:09:44;;;;;;;2.77;0.80;;;9.30;99.90;;;;;;4930422;29;20633;-69
2022/02/06 14:12:16;;;;;;;3.57;1.00;;;9.40;99.90;;;;;;4928871;29;20580;-68
2022/02/06 14:14:50;;;;;;;3.87;1.00;;;9.40;99.90;;;;;;4922214;29;20228;-68
2022/02/06 14:17:19;;;;;;;2.70;0.83;;;9.40;99.90;;;;;;4922779;29;20201;-69
2022/02/06 14:19:47;;;;;;;3.53;0.70;;;9.50;99.90;;;;;;4916037;29;20238;-69
2022/02/06 14:22:28;;;;;;;0.63;0.33;;;9.70;99.90;;;;;;4935475;29;20572;-69
2022/02/06 14:24:56;;;;;;;2.47;0.70;;;9.80;99.90;;;;;;4935501;29;20216;-69
2022/02/06 14:27:32;;;;;;;3.30;0.80;;;9.90;99.90;;;;;;4935151;29;20255;-69
2022/02/06 14:30:07;;;;;;;3.50;0.53;;;9.90;99.90;;;;;;4935114;29;20771;-70
2022/02/06 14:32:35;;;;;;;5.97;0.90;;;10.00;99.90;;;;;;4933801;29;20211;-68
2022/02/06 14:35:06;;;;;;;3.37;0.80;;;10.00;99.90;;;;;;4933780;29;20223;-70
2022/02/06 14:37:45;;;;;;;4.20;0.87;;;10.00;99.90;;;;;;4934007;29;20209;-69
2022/02/06 14:40:17;;;;;;;5.93;0.90;;;10.00;99.90;;;;;;4934397;29;20225;-70
2022/02/06 14:42:52;;;;;;;3.50;0.90;;;10.00;99.90;;;;;;4934631;29;20209;-69
2022/02/06 14:45:19;;;;;;;5.83;0.83;;;9.90;99.90;;;;;;4935494;29;20212;-69
2022/02/06 14:47:47;;;;;;;4.50;1.30;;;9.90;99.90;;;;;;4935464;29;20208;-70
2022/02/06 14:50:16;;;;;;;3.03;0.90;;;9.80;99.90;;;;;;4934317;29;20233;-70
2022/02/06 14:52:43;;;;;;;3.87;0.80;;;9.90;99.90;;;;;;4934926;29;20212;-70
2022/02/06 14:55:11;;;;;;;3.27;0.87;;;9.90;99.90;;;;;;4933932;29;20201;-70
2022/02/06 14:57:38;;;;;;;3.13;0.70;;;9.80;99.90;;;;;;4934442;29;20230;-70
2022/02/06 15:00:08;;;;;;;1.93;0.97;;;9.90;99.90;;;;;;4934984;29;20231;-70
2022/02/06 15:02:35;;;;;;;3.60;0.90;;;9.90;99.90;;;;;;4929433;29;20207;-70
2022/02/06 15:05:04;;;;;;;1.83;0.70;;;9.80;99.90;;;;;;4934517;29;20300;-70
2022/02/06 15:07:31;;;;;;;4.73;0.90;;;9.90;99.90;;;;;;4934874;29;20243;-70
2022/02/06 15:09:58;;;;;;;4.33;1.00;;;9.80;99.90;;;;;;4934553;29;20229;-70
2022/02/06 15:12:25;;;;;;;4.43;0.83;;;9.80;99.90;;;;;;4934434;29;20212;-70
2022/02/06 15:14:54;;;;;;;1.30;0.70;;;9.80;99.90;;;;;;4935260;29;20236;-69
2022/02/06 15:17:22;;;;;;;3.17;0.90;;;9.80;99.90;;;;;;4935076;29;20208;-70
2022/02/06 15:19:49;;;;;;;7.30;0.80;;;9.80;99.90;;;;;;4935398;29;20666;-70
2022/02/06 15:22:17;;;;;;;3.13;0.60;;;9.80;99.90;;;;;;4935085;29;20208;-69
2022/02/06 15:24:44;;;;;;;3.07;0.70;;;9.90;99.90;;;;;;4936051;29;20237;-70
2022/02/06 15:27:11;;;;;;;4.53;0.70;;;9.90;99.90;;;;;;4939066;29;20236;-69
2022/02/06 15:29:38;;;;;;;1.27;0.67;;;9.90;99.90;;;;;;4939188;29;20216;-70
2022/02/06 15:32:06;;;;;;;4.73;0.90;;;9.90;99.90;;;;;;4939238;29;20223;-69
2022/02/06 15:34:32;;;;;;;1.57;0.57;;;9.90;99.90;;;;;;4937836;29;20205;-69
2022/02/06 15:37:02;;;;;;;1.03;0.40;;;9.90;99.90;;;;;;4938907;29;20656;-69
2022/02/06 15:39:38;;;;;;;2.43;0.80;;;9.90;99.90;;;;;;4938433;29;20813;-71
2022/02/06 15:42:08;;;;;;;2.83;1.00;;;10.00;99.90;;;;;;4938771;29;20299;-72
2022/02/06 15:44:35;;;;;;;1.83;0.40;;;9.90;99.90;;;;;;4939201;29;20567;-71
2022/02/06 15:47:01;;;;;;;2.33;0.70;;;9.80;99.90;;;;;;4938872;29;20236;-69
2022/02/06 15:49:28;;;;;;;1.97;0.73;;;9.80;99.90;;;;;;4938759;29;20223;-70
2022/02/06 15:51:55;;;;;;;5.80;0.90;;;9.70;99.90;;;;;;4938607;29;20670;-71
2022/02/06 15:54:22;;;;;;;6.47;1.10;;;9.70;99.90;;;;;;4938842;29;20735;-69
2022/02/06 15:56:51;;;;;;;4.43;0.80;;;9.70;99.90;;;;;;4938267;29;20691;-70
2022/02/06 15:59:17;;;;;;;4.47;0.70;;;9.70;99.90;;;;;;4938613;29;20231;-69
2022/02/06 16:01:44;;;;;;;4.83;0.70;;;9.70;99.90;;;;;;4938098;29;20577;-69
2022/02/06 16:04:11;;;;;;;2.43;0.50;;;9.60;99.90;;;;;;4938268;29;20208;-70
2022/02/06 16:06:39;;;;;;;2.67;0.60;;;9.50;99.90;;;;;;4938347;29;20239;-71
2022/02/06 16:09:06;;;;;;;3.50;0.80;;;9.50;99.90;;;;;;4938661;29;20213;-69
2022/02/06 16:11:34;;;;;;;1.77;0.40;;;9.30;99.90;;;;;;4938306;29;20568;-70
2022/02/06 16:14:04;;;;;;;0.90;0.50;;;9.20;99.90;;;;;;4937625;29;20686;-71
2022/02/06 16:16:31;;;;;;;5.17;0.70;;;9.10;99.90;;;;;;4938118;29;20303;-72
2022/02/06 16:18:59;;;;;;;2.20;0.40;;;9.10;99.90;;;;;;4938364;29;20215;-70
2022/02/06 16:21:28;;;;;;;3.53;0.57;;;9.10;99.90;;;;;;4938508;29;20228;-72
2022/02/06 16:23:55;;;;;;;2.27;0.60;;;9.20;99.90;;;;;;4938713;29;20213;-70
2022/02/06 16:26:23;;;;;;;3.70;0.73;;;9.20;99.90;;;;;;4936968;29;20241;-71
2022/02/06 16:28:52;;;;;;;5.13;0.53;;;9.20;99.90;;;;;;4936981;29;20215;-71
2022/02/06 16:31:21;;;;;;;2.83;0.70;;;9.20;99.90;;;;;;4937368;29;20260;-70
2022/02/06 16:33:49;;;;;;;1.67;0.50;;;9.40;99.90;;;;;;4937250;29;20221;-75
2022/02/06 16:36:16;;;;;;;6.93;0.80;;;9.40;99.90;;;;;;4935517;29;20377;-71
2022/02/06 16:38:43;;;;;;;3.90;0.70;;;9.30;99.90;;;;;;4936874;29;20212;-70
2022/02/06 16:41:10;;;;;;;3.50;0.70;;;9.30;99.90;;;;;;4936186;29;20588;-71
2022/02/06 16:43:37;;;;;;;5.30;1.20;;;9.30;99.90;;;;;;4937255;29;20201;-71
2022/02/06 16:46:05;;;;;;;1.20;0.47;;;9.30;99.90;;;;;;4937535;29;20237;-71
2022/02/06 16:48:33;;;;;;;4.03;0.70;;;9.30;99.90;;;;;;4937247;29;20205;-71
2022/02/06 16:51:00;;;;;;;5.20;0.90;;;9.20;99.90;;;;;;4936410;29;20236;-71
2022/02/06 16:53:27;;;;;;;3.23;0.90;;;9.10;99.90;;;;;;4936744;29;20630;-73
2022/02/06 16:55:54;;;;;;;2.80;0.67;;;9.10;99.90;;;;;;4936224;29;20232;-71
2022/02/06 16:58:21;;;;;;;3.10;0.70;;;9.10;99.90;;;;;;4936086;29;20197;-70
2022/02/06 17:00:48;;;;;;;1.57;0.50;;;9.00;99.90;;;;;;4936079;29;20231;-71
2022/02/06 17:03:15;;;;;;;3.03;0.70;;;8.90;99.90;;;;;;4934961;29;20295;-71
2022/02/06 17:05:44;;;;;;;4.70;0.77;;;8.90;99.90;;;;;;4936706;29;20209;-74
2022/02/06 17:08:11;;;;;;;2.47;0.60;;;8.90;99.90;;;;;;4937101;29;20236;-74
2022/02/06 17:10:39;;;;;;;1.93;0.60;;;8.90;99.90;;;;;;4936689;29;20233;-75
2022/02/06 17:13:06;;;;;;;4.27;0.60;;;8.80;99.90;;;;;;4937132;29;20660;-74
2022/02/06 17:15:33;;;;;;;1.97;0.60;;;8.80;99.90;;;;;;4937130;29;20236;-75
2022/02/06 17:18:00;;;;;;;5.17;1.10;;;8.80;99.90;;;;;;4937062;29;20229;-75
2022/02/06 17:20:27;;;;;;;0.90;0.40;;;8.70;99.90;;;;;;4937197;29;20233;-75
2022/02/06 17:22:55;;;;;;;1.67;0.70;;;8.80;99.90;;;;;;4936981;29;20607;-75
2022/02/06 17:25:22;;;;;;;9.63;1.20;;;8.70;99.90;;;;;;4936883;29;20576;-74
2022/02/06 17:27:49;;;;;;;2.33;0.60;;;8.70;99.90;;;;;;4936759;29;20247;-75
2022/02/06 17:30:16;;;;;;;3.93;0.87;;;8.80;99.90;;;;;;4936047;29;20229;-75
2022/02/06 17:32:43;;;;;;;2.57;0.60;;;8.90;99.90;;;;;;4936243;29;20207;-75
2022/02/06 17:35:10;;;;;;;4.20;0.90;;;8.80;99.90;;;;;;4935750;29;20223;-75
2022/02/06 17:37:37;;;;;;;5.43;0.73;;;8.90;99.90;;;;;;4936678;29;20205;-74
2022/02/06 17:40:10;;;;;;;4.40;0.70;;;9.00;99.90;;;;;;4936645;29;20229;-74
2022/02/06 17:42:38;;;;;;;3.77;1.10;;;9.00;99.90;;;;;;4936040;29;20257;-71
2022/02/06 17:45:06;;;;;;;4.00;0.80;;;9.00;99.90;;;;;;4932722;29;20209;-73
2022/02/06 17:47:34;;;;;;;11.00;1.40;;;9.10;99.90;;;;;;4936089;29;20241;-73
2022/02/06 17:50:01;;;;;;;3.60;0.80;;;9.20;99.90;;;;;;4936075;29;20229;-74
2022/02/06 17:52:28;;;;;;;3.53;0.90;;;9.30;99.90;;;;;;4936265;29;20251;-73
2022/02/06 17:54:57;;;;;;;6.43;1.03;;;9.30;99.90;;;;;;4935816;29;20660;-75
2022/02/06 17:57:25;;;;;;;6.40;1.10;;;9.30;99.90;;;;;;4935949;29;20213;-75
2022/02/06 17:59:53;;;;;;;4.20;0.83;;;9.30;99.90;;;;;;4935402;29;20731;-73
2022/02/06 18:02:20;;;;;;;3.90;1.30;;;9.30;99.90;;;;;;4934071;29;20205;-74
2022/02/06 18:04:47;;;;;;;1.67;0.60;;;9.20;99.90;;;;;;4935413;29;20212;-74
2022/02/06 18:07:14;;;;;;;4.57;0.87;;;9.30;99.90;;;;;;4935980;29;20237;-73
2022/02/06 18:09:41;;;;;;;3.90;0.83;;;9.40;99.90;;;;;;4935748;29;20640;-72
2022/02/06 18:12:09;;;;;;;10.57;1.00;;;9.40;99.90;;;;;;4936026;29;20215;-76
2022/02/06 18:14:37;;;;;;;1.47;0.50;;;9.40;99.90;;;;;;4934589;29;20221;-73